Time;durP1;ratioP1;P1;durP2;ratioP2;P2;SDS_P1;SDS_P2;PMS_P1;PMS_P2;Temp;Humidity;BMP_temperature;BMP_pressure;BME280_temperature;BME280_humidity;BME280_pressure;Samples;Min_cycle;Max_cycle;Signal;HPM_P1;HPM_P2
2023/08/28 00:01:45;;;;;;;3.13;1.77;;;;;;;;;;4988658;28;20486;-78
2023/08/28 00:04:10;;;;;;;2.95;1.63;;;;;;;;;;4972051;28;20108;-78
2023/08/28 00:06:36;;;;;;;2.75;1.50;;;;;;;;;;4975179;28;20022;-79
2023/08/28 00:09:01;;;;;;;2.20;1.27;;;;;;;;;;4989625;28;20552;-78
2023/08/28 00:11:26;;;;;;;10.65;1.40;;;;;;;;;;4974233;28;20050;-78
2023/08/28 00:13:52;;;;;;;3.47;2.03;;;;;;;;;;4968266;28;20483;-78
2023/08/28 00:16:17;;;;;;;3.30;1.75;;;;;;;;;;4992769;28;20105;-78
2023/08/28 00:18:43;;;;;;;4.35;1.55;;;;;;;;;;4975571;28;20022;-78
2023/08/28 00:21:08;;;;;;;2.40;1.50;;;;;;;;;;4977448;28;20068;-78
2023/08/28 00:23:34;;;;;;;3.92;1.90;;;;;;;;;;4990944;28;20022;-78
2023/08/28 00:25:59;;;;;;;4.82;1.92;;;;;;;;;;4992734;28;20058;-78
2023/08/28 00:28:25;;;;;;;3.53;1.60;;;;;;;;;;4977009;28;20038;-78
2023/08/28 00:30:50;;;;;;;2.10;1.60;;;;;;;;;;4967294;28;20041;-78
2023/08/28 00:33:15;;;;;;;5.43;2.20;;;;;;;;;;4969544;28;20466;-78
2023/08/28 00:35:42;;;;;;;3.40;1.90;;;;;;;;;;4970049;28;20030;-78
2023/08/28 00:38:09;;;;;;;3.17;1.60;;;;;;;;;;4987113;28;20486;-78
2023/08/28 00:40:39;;;;;;;3.70;1.88;;;;;;;;;;4982373;28;20466;-78
2023/08/28 00:43:04;;;;;;;2.40;1.70;;;;;;;;;;4983793;28;20018;-78
2023/08/28 00:45:30;;;;;;;2.30;1.60;;;;;;;;;;4973171;28;20034;-78
2023/08/28 00:47:55;;;;;;;2.75;1.95;;;;;;;;;;4986463;28;20038;-78
2023/08/28 00:50:21;;;;;;;2.80;1.75;;;;;;;;;;4981536;28;20027;-78
2023/08/28 00:52:47;;;;;;;4.43;1.88;;;;;;;;;;4993501;28;20048;-78
2023/08/28 00:55:13;;;;;;;3.88;2.50;;;;;;;;;;4982359;28;20034;-78
2023/08/28 00:57:39;;;;;;;4.93;2.80;;;;;;;;;;4961587;28;20089;-78
2023/08/28 01:00:06;;;;;;;6.15;2.28;;;;;;;;;;4979521;28;20398;-78
2023/08/28 01:02:32;;;;;;;5.03;2.40;;;;;;;;;;4971214;28;20034;-76
2023/08/28 01:04:58;;;;;;;4.55;2.10;;;;;;;;;;4991983;28;20026;-76
2023/08/28 01:07:51;;;;;;;4.60;2.40;;;;;;;;;;4976399;28;20036;-76
2023/08/28 01:10:27;;;;;;;5.22;2.20;;;;;;;;;;4990865;28;20026;-77
2023/08/28 01:13:06;;;;;;;3.10;2.20;;;;;;;;;;4968121;28;20121;-78
2023/08/28 01:15:33;;;;;;;7.38;2.45;;;;;;;;;;4972385;28;20026;-78
2023/08/28 01:18:02;;;;;;;3.75;2.35;;;;;;;;;;4989552;28;20030;-78
2023/08/28 01:20:33;;;;;;;5.63;2.17;;;;;;;;;;4973074;28;20037;-78
2023/08/28 01:23:11;;;;;;;3.55;2.15;;;;;;;;;;4975084;28;20030;-78
2023/08/28 01:25:37;;;;;;;3.72;2.40;;;;;;;;;;4986122;28;20030;-78
2023/08/28 01:28:03;;;;;;;5.07;2.40;;;;;;;;;;4982825;28;20041;-78
2023/08/28 01:30:28;;;;;;;3.22;2.22;;;;;;;;;;4970751;28;20022;-78
2023/08/28 01:32:54;;;;;;;4.57;2.42;;;;;;;;;;4953711;28;20038;-78
2023/08/28 01:35:25;;;;;;;4.60;2.35;;;;;;;;;;4985659;28;20113;-78
2023/08/28 01:38:33;;;;;;;4.30;2.45;;;;;;;;;;4980081;28;20113;-78
2023/08/28 01:41:05;;;;;;;3.90;2.40;;;;;;;;;;4959166;28;20080;-78
2023/08/28 01:43:40;;;;;;;3.03;2.30;;;;;;;;;;4969708;28;20528;-78
2023/08/28 01:46:07;;;;;;;3.00;2.10;;;;;;;;;;4989440;28;20117;-78
2023/08/28 01:48:42;;;;;;;3.75;2.28;;;;;;;;;;4986832;28;20114;-78
2023/08/28 01:51:07;;;;;;;3.17;2.08;;;;;;;;;;4984365;28;20034;-78
2023/08/28 01:53:33;;;;;;;3.90;2.55;;;;;;;;;;4973980;28;20111;-79
2023/08/28 01:56:07;;;;;;;5.68;2.38;;;;;;;;;;5003839;28;20041;-78
2023/08/28 01:58:36;;;;;;;4.03;2.40;;;;;;;;;;4987925;28;20065;-78
2023/08/28 02:01:01;;;;;;;3.72;2.25;;;;;;;;;;5009416;28;20030;-78
2023/08/28 02:03:29;;;;;;;3.72;2.30;;;;;;;;;;5001882;28;20036;-78
2023/08/28 02:05:54;;;;;;;3.30;2.30;;;;;;;;;;5000237;28;20555;-81
2023/08/28 02:08:20;;;;;;;5.13;2.45;;;;;;;;;;5006107;28;20034;-82
2023/08/28 02:10:45;;;;;;;3.83;2.53;;;;;;;;;;4993724;28;20033;-82
2023/08/28 02:13:11;;;;;;;4.97;2.30;;;;;;;;;;5008449;28;20561;-77
2023/08/28 02:15:36;;;;;;;4.65;2.30;;;;;;;;;;4991237;28;20030;-77
2023/08/28 02:18:01;;;;;;;3.58;2.50;;;;;;;;;;4986438;28;20381;-78
2023/08/28 02:20:27;;;;;;;4.43;2.75;;;;;;;;;;4992853;28;20120;-78
2023/08/28 02:22:52;;;;;;;3.35;2.47;;;;;;;;;;4983753;28;20023;-77
2023/08/28 02:25:20;;;;;;;3.42;2.30;;;;;;;;;;5003629;28;20727;-77
2023/08/28 02:27:46;;;;;;;4.93;3.00;;;;;;;;;;5004721;28;20026;-77
2023/08/28 02:30:12;;;;;;;3.10;2.30;;;;;;;;;;4988419;28;20477;-78
2023/08/28 02:32:37;;;;;;;3.65;2.30;;;;;;;;;;5000235;28;20030;-76
2023/08/28 02:35:03;;;;;;;3.78;2.58;;;;;;;;;;5010289;28;20453;-77
2023/08/28 02:37:29;;;;;;;5.82;3.05;;;;;;;;;;4990213;28;20033;-78
2023/08/28 02:39:54;;;;;;;3.40;2.65;;;;;;;;;;4990994;28;20087;-78
2023/08/28 02:42:20;;;;;;;4.70;2.85;;;;;;;;;;5002066;28;20061;-77
2023/08/28 02:44:45;;;;;;;4.55;2.95;;;;;;;;;;4990369;28;20435;-77
2023/08/28 02:47:10;;;;;;;4.50;2.88;;;;;;;;;;4992257;28;20053;-77
2023/08/28 02:49:36;;;;;;;5.72;3.08;;;;;;;;;;4986639;28;20034;-77
2023/08/28 02:52:01;;;;;;;4.50;3.40;;;;;;;;;;5004568;28;20081;-77
2023/08/28 02:54:26;;;;;;;7.00;3.13;;;;;;;;;;4981927;28;20035;-77
2023/08/28 02:56:52;;;;;;;4.55;3.17;;;;;;;;;;4970984;28;20027;-78
2023/08/28 02:59:18;;;;;;;4.07;3.15;;;;;;;;;;4970776;28;20030;-78
2023/08/28 03:01:43;;;;;;;4.13;2.90;;;;;;;;;;4985309;28;20030;-78
2023/08/28 03:04:08;;;;;;;4.60;3.17;;;;;;;;;;4972058;28;20029;-78
2023/08/28 03:06:37;;;;;;;4.63;3.22;;;;;;;;;;4988168;28;20037;-78
2023/08/28 03:09:04;;;;;;;4.80;3.25;;;;;;;;;;4983705;28;20447;-78
2023/08/28 03:11:30;;;;;;;5.13;3.53;;;;;;;;;;4985732;28;20446;-78
2023/08/28 03:13:55;;;;;;;4.32;3.25;;;;;;;;;;4965248;28;20041;-78
2023/08/28 03:16:21;;;;;;;4.60;3.50;;;;;;;;;;4968489;28;20037;-78
2023/08/28 03:18:50;;;;;;;4.90;3.65;;;;;;;;;;4970667;28;20474;-78
2023/08/28 03:21:15;;;;;;;4.45;3.45;;;;;;;;;;4986927;28;20109;-78
2023/08/28 03:23:40;;;;;;;6.88;3.63;;;;;;;;;;4979564;28;20164;-76
2023/08/28 03:26:06;;;;;;;5.50;3.90;;;;;;;;;;4988190;28;20030;-76
2023/08/28 03:28:32;;;;;;;7.82;4.70;;;;;;;;;;4986551;28;20033;-77
2023/08/28 03:30:58;;;;;;;7.18;4.60;;;;;;;;;;4968869;28;20027;-77
2023/08/28 03:33:24;;;;;;;6.10;3.97;;;;;;;;;;4968892;28;20031;-77
2023/08/28 03:35:49;;;;;;;5.80;4.47;;;;;;;;;;4985041;28;20026;-76
2023/08/28 03:38:14;;;;;;;6.03;3.88;;;;;;;;;;4984255;28;20111;-77
2023/08/28 03:40:40;;;;;;;5.13;4.07;;;;;;;;;;4985693;28;20039;-76
2023/08/28 03:43:05;;;;;;;4.85;3.90;;;;;;;;;;4988731;28;20026;-76
2023/08/28 03:45:31;;;;;;;6.53;4.05;;;;;;;;;;4972417;28;20031;-78
2023/08/28 03:47:57;;;;;;;6.50;4.38;;;;;;;;;;4966686;28;20028;-78
2023/08/28 03:50:22;;;;;;;5.57;4.20;;;;;;;;;;4984110;28;20030;-78
2023/08/28 03:52:47;;;;;;;5.13;4.20;;;;;;;;;;4970300;28;20018;-78
2023/08/28 03:55:13;;;;;;;4.88;3.70;;;;;;;;;;4984295;28;20046;-78
2023/08/28 03:57:39;;;;;;;6.55;4.45;;;;;;;;;;4985713;28;20058;-78
2023/08/28 04:00:10;;;;;;;4.90;4.18;;;;;;;;;;4986676;28;20045;-78
2023/08/28 04:02:36;;;;;;;5.50;4.07;;;;;;;;;;4987429;28;20031;-78
2023/08/28 04:05:04;;;;;;;6.35;4.30;;;;;;;;;;4987860;28;20022;-78
2023/08/28 04:07:31;;;;;;;6.18;4.40;;;;;;;;;;4987992;28;20433;-78
2023/08/28 04:09:57;;;;;;;5.88;3.97;;;;;;;;;;4983308;28;20113;-78
2023/08/28 04:12:22;;;;;;;6.25;4.20;;;;;;;;;;4986907;28;20097;-78
2023/08/28 04:14:48;;;;;;;5.30;4.30;;;;;;;;;;4988208;28;20126;-78
2023/08/28 04:17:13;;;;;;;5.10;4.30;;;;;;;;;;4990167;28;20041;-79
2023/08/28 04:19:40;;;;;;;7.85;4.78;;;;;;;;;;4985955;28;20112;-78
2023/08/28 04:22:06;;;;;;;5.82;4.30;;;;;;;;;;4983533;28;20034;-78
2023/08/28 04:24:31;;;;;;;7.15;4.80;;;;;;;;;;4986682;28;20097;-78
2023/08/28 04:26:57;;;;;;;6.93;4.70;;;;;;;;;;4982305;28;20121;-78
2023/08/28 04:29:22;;;;;;;5.55;4.60;;;;;;;;;;4986552;28;20057;-78
2023/08/28 04:31:47;;;;;;;5.75;4.50;;;;;;;;;;4981163;28;20391;-78
2023/08/28 04:34:13;;;;;;;7.93;5.22;;;;;;;;;;4976714;28;20030;-78
2023/08/28 04:36:39;;;;;;;6.25;4.57;;;;;;;;;;4987310;28;20165;-78
2023/08/28 04:39:04;;;;;;;6.95;4.72;;;;;;;;;;4988448;28;20112;-78
2023/08/28 04:41:30;;;;;;;5.90;4.88;;;;;;;;;;4986419;28;20030;-78
2023/08/28 04:43:56;;;;;;;6.00;4.82;;;;;;;;;;4990779;28;20022;-78
2023/08/28 04:46:22;;;;;;;6.10;4.82;;;;;;;;;;4989667;28;20096;-78
2023/08/28 04:48:48;;;;;;;6.50;4.82;;;;;;;;;;4988962;28;20026;-78
2023/08/28 04:51:13;;;;;;;7.15;5.18;;;;;;;;;;4988261;28;20382;-78
2023/08/28 04:53:38;;;;;;;5.95;4.53;;;;;;;;;;4983329;28;20061;-78
2023/08/28 04:56:04;;;;;;;5.85;4.63;;;;;;;;;;4967817;28;20363;-79
2023/08/28 04:58:30;;;;;;;7.13;4.50;;;;;;;;;;4984926;28;20035;-81
2023/08/28 05:00:55;;;;;;;5.72;4.72;;;;;;;;;;4980682;28;20027;-78
2023/08/28 05:03:22;;;;;;;5.28;4.03;;;;;;;;;;4984800;28;20103;-79
2023/08/28 05:05:47;;;;;;;5.95;4.20;;;;;;;;;;4972007;28;20482;-78
2023/08/28 05:08:14;;;;;;;6.43;4.88;;;;;;;;;;4969193;28;20113;-78
2023/08/28 05:10:39;;;;;;;6.68;4.53;;;;;;;;;;4982404;28;20037;-78
2023/08/28 05:13:05;;;;;;;6.03;4.63;;;;;;;;;;4985928;28;20077;-78
2023/08/28 05:15:30;;;;;;;7.20;5.18;;;;;;;;;;4985359;28;20537;-78
2023/08/28 05:17:55;;;;;;;5.88;4.38;;;;;;;;;;4967269;28;20026;-79
2023/08/28 05:20:21;;;;;;;8.43;4.72;;;;;;;;;;4991591;28;20058;-78
2023/08/28 05:22:47;;;;;;;6.50;5.18;;;;;;;;;;4969467;28;20397;-78
2023/08/28 05:25:12;;;;;;;6.07;4.68;;;;;;;;;;4965484;28;20081;-78
2023/08/28 05:27:38;;;;;;;6.32;4.82;;;;;;;;;;4979651;28;20022;-78
2023/08/28 05:30:03;;;;;;;6.72;5.22;;;;;;;;;;4963268;28;20038;-78
2023/08/28 05:32:29;;;;;;;7.18;5.53;;;;;;;;;;4969448;28;20038;-78
2023/08/28 05:34:57;;;;;;;7.07;5.70;;;;;;;;;;4987176;28;20034;-78
2023/08/28 05:37:23;;;;;;;5.88;4.78;;;;;;;;;;4988526;28;20037;-78
2023/08/28 05:39:50;;;;;;;7.53;5.68;;;;;;;;;;4989363;28;20022;-79
2023/08/28 05:42:15;;;;;;;8.50;5.40;;;;;;;;;;4973879;28;20026;-79
2023/08/28 05:44:42;;;;;;;7.90;5.47;;;;;;;;;;4974028;28;20032;-79
2023/08/28 05:47:08;;;;;;;7.10;5.80;;;;;;;;;;4966665;28;20033;-79
2023/08/28 05:49:33;;;;;;;7.30;5.43;;;;;;;;;;4985182;28;20448;-79
2023/08/28 05:51:58;;;;;;;6.18;5.28;;;;;;;;;;4988653;28;20546;-79
2023/08/28 05:54:24;;;;;;;7.78;4.60;;;;;;;;;;4991135;28;20026;-79
2023/08/28 05:56:49;;;;;;;6.07;4.45;;;;;;;;;;4975612;28;20026;-79
2023/08/28 05:59:15;;;;;;;5.97;4.47;;;;;;;;;;4973388;28;20442;-78
2023/08/28 06:01:40;;;;;;;5.88;4.88;;;;;;;;;;4981779;28;20026;-78
2023/08/28 06:04:05;;;;;;;6.65;5.20;;;;;;;;;;4989257;28;20053;-78
2023/08/28 06:06:31;;;;;;;5.90;4.60;;;;;;;;;;4988938;28;20039;-78
2023/08/28 06:08:56;;;;;;;6.10;4.57;;;;;;;;;;4967056;28;20027;-79
2023/08/28 06:11:21;;;;;;;5.18;4.38;;;;;;;;;;4986708;28;20084;-79
2023/08/28 06:13:47;;;;;;;5.82;4.50;;;;;;;;;;4982766;28;20037;-79
2023/08/28 06:16:12;;;;;;;6.45;4.35;;;;;;;;;;4990333;28;20034;-78
2023/08/28 06:18:38;;;;;;;8.65;4.90;;;;;;;;;;4973252;28;20524;-78
2023/08/28 06:21:03;;;;;;;7.38;5.10;;;;;;;;;;4990124;28;20042;-78
2023/08/28 06:23:29;;;;;;;8.18;5.22;;;;;;;;;;4991929;28;20023;-78
2023/08/28 06:25:55;;;;;;;8.68;5.50;;;;;;;;;;4984508;28;20080;-78
2023/08/28 06:28:20;;;;;;;7.47;5.38;;;;;;;;;;4990633;28;20117;-78
2023/08/28 06:30:46;;;;;;;6.80;4.60;;;;;;;;;;4969894;28;20509;-77
2023/08/28 06:33:11;;;;;;;6.72;4.75;;;;;;;;;;4993149;28;20080;-78
2023/08/28 06:35:37;;;;;;;7.93;5.22;;;;;;;;;;4983920;28;20065;-78
2023/08/28 06:38:03;;;;;;;7.50;5.55;;;;;;;;;;4972212;28;20046;-78
2023/08/28 06:40:29;;;;;;;6.43;5.63;;;;;;;;;;4969651;28;20409;-78
2023/08/28 06:42:54;;;;;;;6.78;5.82;;;;;;;;;;4970985;28;20066;-79
2023/08/28 06:45:19;;;;;;;7.20;5.68;;;;;;;;;;4994655;28;20026;-78
2023/08/28 06:47:45;;;;;;;9.38;5.70;;;;;;;;;;4989907;28;20029;-78
2023/08/28 06:50:11;;;;;;;8.32;6.38;;;;;;;;;;4985345;28;20114;-79
2023/08/28 06:52:37;;;;;;;9.25;6.30;;;;;;;;;;4983766;28;20044;-79
2023/08/28 06:55:03;;;;;;;8.80;6.70;;;;;;;;;;4986938;28;20038;-79
2023/08/28 06:57:28;;;;;;;10.45;7.10;;;;;;;;;;4961054;28;20053;-78
2023/08/28 06:59:54;;;;;;;7.60;6.55;;;;;;;;;;4981280;28;20030;-79
2023/08/28 07:02:19;;;;;;;8.73;7.82;;;;;;;;;;4963106;28;20030;-78
2023/08/28 07:04:44;;;;;;;10.38;7.80;;;;;;;;;;4982514;28;20101;-79
2023/08/28 07:07:12;;;;;;;11.45;7.82;;;;;;;;;;4978123;28;20042;-79
2023/08/28 07:09:39;;;;;;;9.65;7.35;;;;;;;;;;4985283;28;20482;-79
2023/08/28 07:12:05;;;;;;;11.00;6.53;;;;;;;;;;4965241;28;20113;-79
2023/08/28 07:14:30;;;;;;;10.57;6.90;;;;;;;;;;4988500;28;20121;-78
2023/08/28 07:16:56;;;;;;;9.77;6.70;;;;;;;;;;4966608;28;20118;-78
2023/08/28 07:19:21;;;;;;;9.82;6.40;;;;;;;;;;4965151;28;20033;-78
2023/08/28 07:21:47;;;;;;;8.95;7.05;;;;;;;;;;4973300;28;20031;-78
2023/08/28 07:24:12;;;;;;;10.18;7.10;;;;;;;;;;4964774;28;20019;-79
2023/08/28 07:26:38;;;;;;;9.90;7.13;;;;;;;;;;4984917;28;20026;-78
2023/08/28 07:29:03;;;;;;;9.15;7.43;;;;;;;;;;4991856;28;20034;-79
2023/08/28 07:31:29;;;;;;;9.60;7.93;;;;;;;;;;4970868;28;20026;-79
2023/08/28 07:33:54;;;;;;;10.10;7.63;;;;;;;;;;4965581;28;20112;-79
2023/08/28 07:36:23;;;;;;;9.80;7.63;;;;;;;;;;4972383;28;20030;-79
2023/08/28 07:38:49;;;;;;;10.60;7.40;;;;;;;;;;4992145;28;20034;-78
2023/08/28 07:41:16;;;;;;;8.77;6.70;;;;;;;;;;4967687;28;20145;-79
2023/08/28 07:43:42;;;;;;;10.32;7.07;;;;;;;;;;4974607;28;20046;-79
2023/08/28 07:46:08;;;;;;;11.25;7.28;;;;;;;;;;4990816;28;20034;-78
2023/08/28 07:48:33;;;;;;;9.90;6.07;;;;;;;;;;4976665;28;20057;-79
2023/08/28 07:50:58;;;;;;;9.25;6.35;;;;;;;;;;4989479;28;20073;-79
2023/08/28 07:53:24;;;;;;;10.30;6.63;;;;;;;;;;4992841;28;20034;-79
2023/08/28 07:55:49;;;;;;;9.77;6.15;;;;;;;;;;4969490;28;21299;-79
2023/08/28 07:58:15;;;;;;;8.07;6.00;;;;;;;;;;4990124;28;20081;-79
2023/08/28 08:00:41;;;;;;;6.78;5.30;;;;;;;;;;4971879;28;20295;-79
2023/08/28 08:03:06;;;;;;;9.73;5.82;;;;;;;;;;4970841;28;20027;-81
2023/08/28 08:05:32;;;;;;;7.03;5.57;;;;;;;;;;4981173;28;20094;-82
2023/08/28 08:07:58;;;;;;;7.93;5.05;;;;;;;;;;4967136;28;20385;-81
2023/08/28 08:10:23;;;;;;;6.90;4.25;;;;;;;;;;4989039;28;20478;-81
2023/08/28 08:12:49;;;;;;;5.32;4.30;;;;;;;;;;4987392;28;20028;-82
2023/08/28 08:15:14;;;;;;;6.10;4.57;;;;;;;;;;4991529;28;20061;-82
2023/08/28 08:17:39;;;;;;;5.90;4.43;;;;;;;;;;4992757;28;20049;-82
2023/08/28 08:20:10;;;;;;;7.18;5.03;;;;;;;;;;4991045;28;20026;-82
2023/08/28 08:22:37;;;;;;;6.57;4.68;;;;;;;;;;4970415;28;20030;-82
2023/08/28 08:25:03;;;;;;;6.63;4.55;;;;;;;;;;4968686;28;20037;-81
2023/08/28 08:27:30;;;;;;;6.05;4.47;;;;;;;;;;4966355;28;20490;-80
2023/08/28 08:29:55;;;;;;;6.05;3.72;;;;;;;;;;4986808;28;20036;-81
2023/08/28 08:32:20;;;;;;;5.32;3.65;;;;;;;;;;4988910;28;20037;-81
2023/08/28 08:34:46;;;;;;;6.95;3.60;;;;;;;;;;4988101;28;20084;-81
2023/08/28 08:37:11;;;;;;;6.03;3.85;;;;;;;;;;4988609;28;20104;-80
2023/08/28 08:39:37;;;;;;;3.72;2.70;;;;;;;;;;4986320;28;20113;-82
2023/08/28 08:42:03;;;;;;;3.33;2.60;;;;;;;;;;4981050;28;20405;-82
2023/08/28 08:44:29;;;;;;;4.70;2.65;;;;;;;;;;4988510;28;20022;-83
2023/08/28 08:46:56;;;;;;;4.88;3.30;;;;;;;;;;4984066;28;20037;-81
2023/08/28 08:49:25;;;;;;;6.15;4.88;;;;;;;;;;4968403;28;20030;-82
2023/08/28 08:51:57;;;;;;;6.70;5.05;;;;;;;;;;4971722;28;20460;-81
2023/08/28 08:54:30;;;;;;;6.03;4.47;;;;;;;;;;4975386;28;20030;-82
2023/08/28 08:57:02;;;;;;;6.57;4.45;;;;;;;;;;4989348;28;20026;-82
2023/08/28 08:59:28;;;;;;;5.90;4.60;;;;;;;;;;4994763;28;20497;-83
2023/08/28 09:01:54;;;;;;;5.90;3.88;;;;;;;;;;4978907;28;20041;-82
2023/08/28 09:04:21;;;;;;;5.45;3.72;;;;;;;;;;4975088;28;20030;-82
2023/08/28 09:06:48;;;;;;;5.20;3.30;;;;;;;;;;4972690;28;20050;-82
2023/08/28 09:09:15;;;;;;;5.88;3.17;;;;;;;;;;4985186;28;20395;-82
2023/08/28 09:11:41;;;;;;;5.50;3.80;;;;;;;;;;4968718;28;22557;-82
2023/08/28 09:14:07;;;;;;;6.40;4.20;;;;;;;;;;4977588;28;20112;-78
2023/08/28 09:16:35;;;;;;;6.35;5.10;;;;;;;;;;4990207;28;20375;-78
2023/08/28 09:19:01;;;;;;;5.55;4.18;;;;;;;;;;4970275;28;20117;-78
2023/08/28 09:21:37;;;;;;;5.80;3.95;;;;;;;;;;5002776;28;20125;-78
2023/08/28 09:24:07;;;;;;;5.78;3.00;;;;;;;;;;4985226;28;20034;-78
2023/08/28 09:26:33;;;;;;;5.82;4.45;;;;;;;;;;4968416;28;20084;-78
2023/08/28 09:29:07;;;;;;;5.75;3.85;;;;;;;;;;4972155;28;20030;-78
2023/08/28 09:31:36;;;;;;;6.93;3.50;;;;;;;;;;4987639;28;20152;-79
2023/08/28 09:34:03;;;;;;;5.05;3.28;;;;;;;;;;4979293;28;20034;-78
2023/08/28 09:36:33;;;;;;;5.43;3.08;;;;;;;;;;4989763;28;20368;-79
2023/08/28 09:39:03;;;;;;;5.13;2.65;;;;;;;;;;4970493;28;20019;-79
2023/08/28 09:41:38;;;;;;;4.45;2.90;;;;;;;;;;4962720;28;20034;-78
2023/08/28 09:44:04;;;;;;;3.85;2.30;;;;;;;;;;4988574;28;20037;-78
2023/08/28 09:46:29;;;;;;;4.07;1.90;;;;;;;;;;4986108;28;20030;-78
2023/08/28 09:48:55;;;;;;;5.72;2.40;;;;;;;;;;4986748;28;20416;-78
2023/08/28 09:51:20;;;;;;;3.78;2.40;;;;;;;;;;4968781;28;20037;-78
2023/08/28 09:53:58;;;;;;;2.72;2.10;;;;;;;;;;4966828;28;20058;-78
2023/08/28 09:56:30;;;;;;;2.90;2.38;;;;;;;;;;4989554;28;20030;-78
2023/08/28 09:58:57;;;;;;;2.70;1.92;;;;;;;;;;4975112;28;20026;-79
2023/08/28 10:01:24;;;;;;;5.38;2.70;;;;;;;;;;4990914;28;20043;-79
2023/08/28 10:03:50;;;;;;;6.03;2.90;;;;;;;;;;4964441;28;20423;-78
2023/08/28 10:06:16;;;;;;;5.43;3.25;;;;;;;;;;4968406;28;20470;-78
2023/08/28 10:08:43;;;;;;;5.65;3.00;;;;;;;;;;4990584;28;20034;-78
2023/08/28 10:11:09;;;;;;;3.90;2.80;;;;;;;;;;4968632;28;20386;-78
2023/08/28 10:13:34;;;;;;;4.07;3.20;;;;;;;;;;4987188;28;20038;-78
2023/08/28 10:16:06;;;;;;;4.65;3.35;;;;;;;;;;4969035;28;20022;-78
2023/08/28 10:18:39;;;;;;;4.47;3.00;;;;;;;;;;4985088;28;20576;-78
2023/08/28 10:21:06;;;;;;;5.15;3.10;;;;;;;;;;4992380;28;20030;-78
2023/08/28 10:23:34;;;;;;;4.55;2.97;;;;;;;;;;4990902;28;20509;-77
2023/08/28 10:26:04;;;;;;;3.50;2.60;;;;;;;;;;4967222;28;20022;-76
2023/08/28 10:28:31;;;;;;;5.45;3.05;;;;;;;;;;4985824;28;20030;-76
2023/08/28 10:30:57;;;;;;;3.75;1.90;;;;;;;;;;4987530;28;20038;-77
2023/08/28 10:33:23;;;;;;;2.83;1.60;;;;;;;;;;4968671;28;20062;-76
2023/08/28 10:35:54;;;;;;;2.53;1.40;;;;;;;;;;4987390;28;20085;-76
2023/08/28 10:38:21;;;;;;;3.28;1.52;;;;;;;;;;4982541;28;20070;-77
2023/08/28 10:40:53;;;;;;;3.47;2.17;;;;;;;;;;4965910;28;20108;-79
2023/08/28 10:43:20;;;;;;;5.60;2.50;;;;;;;;;;4969467;28;20037;-77
2023/08/28 10:45:46;;;;;;;5.25;3.20;;;;;;;;;;4970204;28;20108;-76
2023/08/28 10:48:12;;;;;;;6.32;3.70;;;;;;;;;;4987623;28;20030;-76
2023/08/28 10:50:38;;;;;;;5.03;3.50;;;;;;;;;;4983451;28;20022;-76
2023/08/28 10:53:05;;;;;;;5.85;3.20;;;;;;;;;;4984314;28;20036;-76
2023/08/28 10:55:30;;;;;;;4.03;2.85;;;;;;;;;;4987424;28;20022;-76
2023/08/28 10:58:01;;;;;;;4.10;2.60;;;;;;;;;;4993564;28;20042;-76
2023/08/28 11:00:28;;;;;;;3.80;2.40;;;;;;;;;;4970396;28;20034;-76
2023/08/28 11:03:06;;;;;;;5.13;2.53;;;;;;;;;;4985139;28;20019;-76
2023/08/28 11:05:32;;;;;;;4.20;3.08;;;;;;;;;;4974052;28;20254;-76
2023/08/28 11:08:03;;;;;;;4.70;3.85;;;;;;;;;;4970130;28;20031;-77
2023/08/28 11:10:29;;;;;;;4.70;3.75;;;;;;;;;;4977231;28;20802;-77
2023/08/28 11:13:01;;;;;;;4.25;3.50;;;;;;;;;;4983563;28;20026;-76
2023/08/28 11:15:28;;;;;;;3.70;3.17;;;;;;;;;;4968960;28;20096;-79
2023/08/28 11:18:29;;;;;;;5.82;3.22;;;;;;;;;;4987603;28;20100;-78
2023/08/28 11:21:06;;;;;;;5.00;3.10;;;;;;;;;;4983182;28;20053;-76
2023/08/28 11:23:42;;;;;;;5.10;3.30;;;;;;;;;;4965983;28;20395;-76
2023/08/28 11:26:16;;;;;;;3.80;2.15;;;;;;;;;;4966166;28;20037;-77
2023/08/28 11:28:44;;;;;;;3.97;3.20;;;;;;;;;;4984671;28;20054;-78
2023/08/28 11:31:11;;;;;;;4.15;2.92;;;;;;;;;;4966288;28;20723;-76
2023/08/28 11:33:49;;;;;;;4.20;3.00;;;;;;;;;;4961229;28;20030;-78
2023/08/28 11:36:17;;;;;;;4.38;3.30;;;;;;;;;;4980744;28;20505;-78
2023/08/28 11:38:44;;;;;;;3.80;2.60;;;;;;;;;;4965363;28;20042;-78
2023/08/28 11:41:10;;;;;;;4.75;3.00;;;;;;;;;;4983583;28;20481;-78
2023/08/28 11:43:37;;;;;;;4.07;2.58;;;;;;;;;;4962986;28;20303;-78
2023/08/28 11:46:03;;;;;;;3.42;2.40;;;;;;;;;;4967627;28;20057;-78
2023/08/28 11:48:36;;;;;;;4.10;2.80;;;;;;;;;;4967415;28;20366;-78
2023/08/28 11:51:04;;;;;;;4.20;3.10;;;;;;;;;;4957904;28;20069;-78
2023/08/28 11:53:48;;;;;;;2.50;1.85;;;;;;;;;;4963518;28;20058;-78
2023/08/28 11:56:13;;;;;;;3.70;2.50;;;;;;;;;;4962110;28;20513;-78
2023/08/28 11:58:40;;;;;;;4.20;2.47;;;;;;;;;;4966887;28;20030;-78
2023/08/28 12:01:12;;;;;;;4.28;2.55;;;;;;;;;;4978270;28;20121;-78
2023/08/28 12:03:41;;;;;;;4.25;2.58;;;;;;;;;;4962251;28;20057;-78
2023/08/28 12:06:08;;;;;;;3.97;2.90;;;;;;;;;;4966106;28;20038;-78
2023/08/28 12:08:36;;;;;;;4.82;2.95;;;;;;;;;;4983845;28;20041;-78
2023/08/28 12:11:03;;;;;;;4.15;2.95;;;;;;;;;;4964872;28;20100;-79
2023/08/28 12:13:30;;;;;;;3.63;2.25;;;;;;;;;;4967368;28;20049;-78
2023/08/28 12:16:14;;;;;;;2.95;1.75;;;;;;;;;;4963165;28;20039;-78
2023/08/28 12:18:51;;;;;;;2.53;1.85;;;;;;;;;;4964642;28;20398;-78
2023/08/28 12:21:18;;;;;;;2.55;1.42;;;;;;;;;;4958147;28;20037;-77
2023/08/28 12:23:53;;;;;;;2.67;1.63;;;;;;;;;;4967940;28;20324;-78
2023/08/28 12:26:21;;;;;;;3.15;1.80;;;;;;;;;;4965776;28;20482;-78
2023/08/28 12:28:47;;;;;;;1.88;1.40;;;;;;;;;;4984627;28;20041;-78
2023/08/28 12:31:13;;;;;;;1.88;1.40;;;;;;;;;;4964051;28;20030;-78
2023/08/28 12:33:43;;;;;;;2.70;2.00;;;;;;;;;;4966150;28;20034;-78
2023/08/28 12:36:10;;;;;;;2.78;1.80;;;;;;;;;;4979276;28;20030;-78
2023/08/28 12:38:50;;;;;;;3.75;1.70;;;;;;;;;;4983029;28;20034;-78
2023/08/28 12:41:17;;;;;;;2.55;1.48;;;;;;;;;;4965198;28;20410;-78
2023/08/28 12:43:43;;;;;;;3.28;2.20;;;;;;;;;;4986744;28;20129;-77
2023/08/28 12:46:09;;;;;;;3.20;2.00;;;;;;;;;;4965418;28;20030;-80
2023/08/28 12:48:35;;;;;;;4.45;2.60;;;;;;;;;;4984901;28;20030;-78
2023/08/28 12:51:00;;;;;;;3.40;1.83;;;;;;;;;;4983829;28;20112;-77
2023/08/28 12:53:25;;;;;;;2.20;1.23;;;;;;;;;;4978984;28;20533;-77
2023/08/28 12:55:51;;;;;;;2.33;1.73;;;;;;;;;;5000951;28;20091;-78
2023/08/28 12:58:16;;;;;;;2.08;1.42;;;;;;;;;;4989422;28;20033;-78
2023/08/28 13:00:42;;;;;;;3.50;1.60;;;;;;;;;;5003699;28;21774;-77
2023/08/28 13:03:07;;;;;;;2.65;1.67;;;;;;;;;;5000164;28;20037;-78
2023/08/28 13:05:33;;;;;;;2.88;1.75;;;;;;;;;;4989770;28;20329;-77
2023/08/28 13:07:58;;;;;;;3.67;1.70;;;;;;;;;;4986212;28;20092;-78
2023/08/28 13:10:24;;;;;;;2.95;1.80;;;;;;;;;;5008482;28;20048;-78
2023/08/28 13:12:49;;;;;;;3.67;1.88;;;;;;;;;;5004398;28;20061;-77
2023/08/28 13:15:15;;;;;;;3.58;1.88;;;;;;;;;;5004387;28;20695;-77
2023/08/28 13:17:41;;;;;;;3.55;2.00;;;;;;;;;;4981965;28;20398;-78
2023/08/28 13:20:07;;;;;;;2.60;1.70;;;;;;;;;;5004045;28;20018;-76
2023/08/28 13:22:36;;;;;;;2.58;1.65;;;;;;;;;;5010282;28;20042;-77
2023/08/28 13:25:03;;;;;;;2.47;1.58;;;;;;;;;;5002278;28;20049;-77
2023/08/28 13:27:28;;;;;;;3.33;1.70;;;;;;;;;;4988966;28;20103;-77
2023/08/28 13:29:54;;;;;;;2.33;1.50;;;;;;;;;;4989851;28;20042;-78
2023/08/28 13:32:19;;;;;;;2.40;1.73;;;;;;;;;;4988811;28;20033;-77
2023/08/28 13:34:45;;;;;;;2.13;1.10;;;;;;;;;;4985497;28;20073;-77
2023/08/28 13:37:10;;;;;;;1.80;1.30;;;;;;;;;;5005703;28;20405;-77
2023/08/28 13:39:37;;;;;;;3.42;1.65;;;;;;;;;;4993571;28;20032;-78
2023/08/28 13:42:03;;;;;;;3.70;2.17;;;;;;;;;;4995715;28;20481;-77
2023/08/28 13:44:29;;;;;;;2.95;1.60;;;;;;;;;;4993862;28;20076;-77
2023/08/28 13:46:55;;;;;;;4.28;1.70;;;;;;;;;;5010064;28;20030;-78
2023/08/28 13:49:21;;;;;;;2.90;1.63;;;;;;;;;;5006473;28;20022;-77
2023/08/28 13:51:49;;;;;;;2.00;1.50;;;;;;;;;;5007551;28;20362;-77
2023/08/28 13:54:15;;;;;;;3.35;1.92;;;;;;;;;;4974031;28;20031;-79
2023/08/28 13:56:43;;;;;;;2.05;1.50;;;;;;;;;;4988629;28;20698;-79
2023/08/28 13:59:08;;;;;;;2.80;1.63;;;;;;;;;;4987585;28;20631;-78
2023/08/28 14:01:34;;;;;;;3.90;2.15;;;;;;;;;;4966130;28;20120;-79
2023/08/28 14:03:59;;;;;;;2.00;1.30;;;;;;;;;;4963742;28;20027;-79
2023/08/28 14:06:25;;;;;;;2.40;1.60;;;;;;;;;;4968485;28;20031;-79
2023/08/28 14:08:51;;;;;;;3.05;1.45;;;;;;;;;;4964387;28;20037;-79
2023/08/28 14:11:16;;;;;;;2.58;1.55;;;;;;;;;;4982379;28;20034;-78
2023/08/28 14:13:42;;;;;;;4.90;1.40;;;;;;;;;;4981034;28;20031;-78
2023/08/28 14:16:07;;;;;;;12.38;3.45;;;;;;;;;;4984073;28;20018;-79
2023/08/28 14:18:33;;;;;;;8.30;1.70;;;;;;;;;;4985266;28;20125;-78
2023/08/28 14:20:59;;;;;;;7.15;1.90;;;;;;;;;;4984631;28;20030;-78
2023/08/28 14:23:25;;;;;;;2.97;1.40;;;;;;;;;;4968350;28;20079;-79
2023/08/28 14:25:51;;;;;;;2.03;1.27;;;;;;;;;;4965928;28;20026;-79
2023/08/28 14:28:17;;;;;;;2.72;1.67;;;;;;;;;;4986785;28;20022;-79
2023/08/28 14:30:43;;;;;;;3.22;1.50;;;;;;;;;;4979451;28;20057;-78
2023/08/28 14:33:10;;;;;;;2.38;1.10;;;;;;;;;;4989539;28;20037;-78
2023/08/28 14:35:42;;;;;;;1.25;0.98;;;;;;;;;;4972481;28;20034;-78
2023/08/28 14:38:07;;;;;;;4.33;1.20;;;;;;;;;;4987992;28;20022;-78
2023/08/28 14:40:33;;;;;;;2.03;1.20;;;;;;;;;;4970972;28;20449;-78
2023/08/28 14:42:59;;;;;;;2.30;1.17;;;;;;;;;;4981613;28;20034;-79